Time;durP1;ratioP1;P1;durP2;ratioP2;P2;SDS_P1;SDS_P2;PMS_P1;PMS_P2;Temp;Humidity;BMP_temperature;BMP_pressure;BME280_temperature;BME280_humidity;BME280_pressure;Samples;Min_cycle;Max_cycle;Signal;HPM_P1;HPM_P2
2021/10/18 00:00:04;;;;;;;16.83;13.10;;;9.10;99.90;;;;;;5071361;28;20021;-50
2021/10/18 00:02:30;;;;;;;16.08;12.20;;;9.10;99.90;;;;;;5066569;28;20033;-50
2021/10/18 00:04:55;;;;;;;18.13;12.65;;;9.10;99.90;;;;;;5068661;28;20047;-50
2021/10/18 00:07:22;;;;;;;19.27;13.25;;;9.10;99.90;;;;;;5075928;28;20559;-51
2021/10/18 00:09:48;;;;;;;18.83;13.13;;;9.10;99.90;;;;;;5066809;28;20073;-48
2021/10/18 00:12:13;;;;;;;15.05;13.05;;;9.10;99.90;;;;;;5066535;28;20068;-51
2021/10/18 00:14:39;;;;;;;16.38;12.18;;;9.10;99.90;;;;;;5066505;28;20544;-50
2021/10/18 00:17:05;;;;;;;16.42;12.00;;;9.10;99.90;;;;;;5067858;28;20052;-48
2021/10/18 00:19:30;;;;;;;18.48;12.60;;;9.10;99.90;;;;;;5073808;28;20115;-53
2021/10/18 00:21:56;;;;;;;15.23;12.25;;;9.10;99.90;;;;;;5091212;22;20048;-52
2021/10/18 00:24:21;;;;;;;15.98;12.13;;;9.00;99.90;;;;;;5074993;28;20483;-53
2021/10/18 00:26:47;;;;;;;13.88;11.45;;;9.00;99.90;;;;;;5076821;28;20512;-53
2021/10/18 00:29:21;;;;;;;16.83;11.75;;;9.00;99.90;;;;;;5070982;28;20580;-54
2021/10/18 00:31:46;;;;;;;16.20;12.02;;;9.00;99.90;;;;;;5065950;28;20119;-54
2021/10/18 00:34:12;;;;;;;16.50;11.57;;;9.00;99.90;;;;;;5069954;28;20441;-52
2021/10/18 00:36:37;;;;;;;14.00;11.18;;;9.00;99.90;;;;;;5069445;28;20044;-54
2021/10/18 00:39:04;;;;;;;15.75;11.40;;;9.00;99.90;;;;;;5069646;28;20032;-51
2021/10/18 00:41:29;;;;;;;15.93;11.02;;;9.00;99.90;;;;;;5077009;28;20029;-52
2021/10/18 00:43:56;;;;;;;14.02;11.80;;;9.00;99.90;;;;;;5051527;28;20089;-53
2021/10/18 00:46:23;;;;;;;15.52;11.20;;;9.00;99.90;;;;;;5070114;28;20028;-51
2021/10/18 00:48:50;;;;;;;12.23;10.63;;;9.00;99.90;;;;;;5069988;28;20510;-51
2021/10/18 00:51:17;;;;;;;15.07;11.43;;;8.90;99.90;;;;;;5069212;28;20043;-53
2021/10/18 00:53:47;;;;;;;19.10;12.27;;;8.90;99.90;;;;;;5069572;28;20051;-51
2021/10/18 00:56:14;;;;;;;16.73;11.45;;;8.90;99.90;;;;;;5069618;28;20472;-52
2021/10/18 00:58:41;;;;;;;18.10;12.43;;;8.90;99.90;;;;;;5066295;28;20075;-57
2021/10/18 01:01:08;;;;;;;15.23;10.52;;;8.90;99.90;;;;;;5049149;28;20036;-51
2021/10/18 01:03:38;;;;;;;12.88;10.60;;;8.90;99.90;;;;;;5067983;28;20602;-51
2021/10/18 01:06:04;;;;;;;14.38;10.50;;;8.90;99.90;;;;;;5069286;28;20082;-53
2021/10/18 01:08:29;;;;;;;18.83;12.10;;;8.90;99.90;;;;;;5069445;28;20063;-55
2021/10/18 01:10:55;;;;;;;12.65;10.07;;;8.90;99.90;;;;;;5066611;28;20238;-54
2021/10/18 01:13:21;;;;;;;14.45;10.63;;;8.80;99.90;;;;;;5055643;28;20532;-54
2021/10/18 01:15:47;;;;;;;14.32;10.35;;;8.80;99.90;;;;;;5065929;28;20029;-53
2021/10/18 01:18:12;;;;;;;18.70;11.05;;;8.80;99.90;;;;;;5069069;28;20104;-52
2021/10/18 01:20:40;;;;;;;14.43;10.35;;;8.80;99.90;;;;;;5069164;28;20112;-51
2021/10/18 01:23:09;;;;;;;16.60;10.93;;;8.80;99.90;;;;;;5069841;28;20028;-50
2021/10/18 01:25:36;;;;;;;13.18;10.57;;;8.70;99.90;;;;;;5069329;28;20028;-51
2021/10/18 01:28:02;;;;;;;14.15;9.98;;;8.70;99.90;;;;;;5068958;28;20031;-51
2021/10/18 01:30:28;;;;;;;14.07;10.55;;;8.70;99.90;;;;;;5068645;28;20028;-53
2021/10/18 01:32:54;;;;;;;17.05;10.93;;;8.70;99.90;;;;;;5069067;28;20090;-52
2021/10/18 01:35:20;;;;;;;13.77;11.02;;;8.60;99.90;;;;;;5068941;28;20066;-50
2021/10/18 01:37:46;;;;;;;15.07;10.52;;;8.60;99.90;;;;;;5068806;28;20048;-51
2021/10/18 01:40:14;;;;;;;13.48;10.93;;;8.60;99.90;;;;;;5073111;28;20025;-51
2021/10/18 01:42:41;;;;;;;13.70;10.30;;;8.50;99.90;;;;;;5077077;28;20028;-51
2021/10/18 01:45:10;;;;;;;19.88;11.07;;;8.50;99.90;;;;;;5068750;28;20024;-51
2021/10/18 01:47:36;;;;;;;14.43;10.90;;;8.50;99.90;;;;;;5068650;28;20039;-54
2021/10/18 01:50:07;;;;;;;15.20;9.68;;;8.40;99.90;;;;;;5050313;28;20541;-52
2021/10/18 01:52:33;;;;;;;17.13;11.48;;;8.40;99.90;;;;;;5068334;28;20025;-51
2021/10/18 01:54:58;;;;;;;18.63;11.20;;;8.40;99.90;;;;;;5050115;28;20043;-51
2021/10/18 01:57:24;;;;;;;17.60;10.90;;;8.40;99.90;;;;;;5068494;28;20017;-53
2021/10/18 01:59:49;;;;;;;12.13;9.75;;;8.40;99.90;;;;;;5067884;28;20082;-51
2021/10/18 02:02:15;;;;;;;11.77;9.65;;;8.30;99.90;;;;;;5068539;28;20078;-51
2021/10/18 02:04:40;;;;;;;12.95;10.30;;;8.30;99.90;;;;;;5050754;28;20056;-51
2021/10/18 02:07:06;;;;;;;13.50;10.73;;;8.30;99.90;;;;;;5068112;28;20113;-50
2021/10/18 02:09:31;;;;;;;12.80;10.82;;;8.20;99.90;;;;;;5068481;28;20030;-51
2021/10/18 02:11:57;;;;;;;12.80;10.27;;;8.30;99.90;;;;;;5068032;28;20028;-51
2021/10/18 02:14:22;;;;;;;13.13;10.40;;;8.20;99.90;;;;;;5068331;28;20101;-51
2021/10/18 02:16:48;;;;;;;14.02;10.43;;;8.20;99.90;;;;;;5067263;28;20025;-54
2021/10/18 02:19:13;;;;;;;13.98;10.93;;;8.20;99.90;;;;;;5067780;28;20514;-51
2021/10/18 02:21:39;;;;;;;13.38;10.57;;;8.20;99.90;;;;;;5067876;28;20048;-51
2021/10/18 02:24:05;;;;;;;15.63;11.38;;;8.20;99.90;;;;;;5049556;28;20028;-53
2021/10/18 02:26:30;;;;;;;15.63;10.88;;;8.20;99.90;;;;;;5067747;28;20048;-51
2021/10/18 02:28:56;;;;;;;19.05;10.18;;;8.20;99.90;;;;;;5067850;28;20031;-51
2021/10/18 02:31:22;;;;;;;13.77;10.30;;;8.10;99.90;;;;;;5066989;28;20547;-51
2021/10/18 02:33:47;;;;;;;16.52;11.85;;;8.20;99.90;;;;;;5067927;28;20035;-51
2021/10/18 02:36:13;;;;;;;14.75;11.18;;;8.20;99.90;;;;;;5067900;28;20033;-51
2021/10/18 02:38:39;;;;;;;13.13;10.60;;;8.10;99.90;;;;;;5065902;28;20602;-52
2021/10/18 02:41:06;;;;;;;16.67;11.05;;;8.10;99.90;;;;;;5052351;28;20029;-53
2021/10/18 02:43:31;;;;;;;15.52;11.70;;;8.10;99.90;;;;;;5067127;28;20028;-52
2021/10/18 02:45:57;;;;;;;17.98;12.32;;;8.10;99.90;;;;;;5049821;28;20044;-51
2021/10/18 02:48:23;;;;;;;15.70;11.50;;;8.10;99.90;;;;;;5067781;28;20036;-51
2021/10/18 02:50:48;;;;;;;15.32;10.45;;;8.10;99.90;;;;;;5067053;28;20027;-51
2021/10/18 02:53:14;;;;;;;15.50;12.02;;;8.10;99.90;;;;;;5067624;28;20350;-50
2021/10/18 02:55:39;;;;;;;13.60;11.27;;;8.10;99.90;;;;;;5066915;28;20682;-51
2021/10/18 02:58:05;;;;;;;15.02;10.65;;;8.10;99.90;;;;;;5067250;28;20029;-51
2021/10/18 03:00:31;;;;;;;16.20;11.80;;;8.10;99.90;;;;;;5066808;28;20752;-52
2021/10/18 03:02:56;;;;;;;16.58;11.20;;;8.10;99.90;;;;;;5049747;28;20039;-51
2021/10/18 03:05:22;;;;;;;13.88;11.00;;;8.10;99.90;;;;;;5067696;28;20526;-51
2021/10/18 03:07:52;;;;;;;21.30;14.40;;;8.10;99.90;;;;;;5067549;28;20028;-51
2021/10/18 03:10:20;;;;;;;18.65;12.57;;;8.10;99.90;;;;;;5066645;28;20542;-51
2021/10/18 03:12:46;;;;;;;16.52;11.60;;;8.10;99.90;;;;;;5067260;28;20056;-51
2021/10/18 03:15:12;;;;;;;16.20;11.63;;;8.10;99.90;;;;;;5049235;28;20098;-51
2021/10/18 03:17:38;;;;;;;14.77;12.68;;;8.10;99.90;;;;;;5067192;28;20024;-53
2021/10/18 03:20:05;;;;;;;17.38;12.95;;;8.00;99.90;;;;;;5066253;28;20035;-52
2021/10/18 03:22:30;;;;;;;17.52;11.50;;;8.00;99.90;;;;;;5067036;28;20027;-51
2021/10/18 03:24:56;;;;;;;19.38;12.63;;;8.00;99.90;;;;;;5066961;28;20407;-51
2021/10/18 03:27:22;;;;;;;20.10;13.57;;;8.00;99.90;;;;;;5066873;28;20025;-51
2021/10/18 03:29:48;;;;;;;20.25;13.38;;;8.00;99.90;;;;;;5066913;28;20115;-51
2021/10/18 03:32:14;;;;;;;17.13;12.93;;;8.00;99.90;;;;;;5066322;28;20056;-51
2021/10/18 03:34:39;;;;;;;16.73;12.35;;;8.00;99.90;;;;;;5066748;28;20063;-51
2021/10/18 03:37:05;;;;;;;19.17;13.10;;;8.00;99.90;;;;;;5066693;28;20111;-49
2021/10/18 03:39:31;;;;;;;17.30;12.02;;;8.00;99.90;;;;;;5064945;28;20064;-50
2021/10/18 03:41:57;;;;;;;17.92;13.15;;;8.00;99.90;;;;;;5072686;28;20031;-51
2021/10/18 03:44:22;;;;;;;20.40;12.13;;;8.00;99.90;;;;;;5049142;28;20115;-53
2021/10/18 03:46:48;;;;;;;20.17;12.48;;;8.00;99.90;;;;;;5066564;28;20099;-51
2021/10/18 03:49:14;;;;;;;18.05;11.80;;;8.00;99.90;;;;;;5067265;28;20086;-54
2021/10/18 03:51:40;;;;;;;16.83;12.88;;;8.00;99.90;;;;;;5049625;28;20050;-52
2021/10/18 03:54:05;;;;;;;17.80;12.30;;;8.00;99.90;;;;;;5066816;28;20044;-52
2021/10/18 03:56:31;;;;;;;21.45;13.55;;;8.00;99.90;;;;;;5066708;28;20094;-50
2021/10/18 03:58:57;;;;;;;20.42;14.27;;;8.00;99.90;;;;;;5065534;28;20039;-51
2021/10/18 04:01:22;;;;;;;19.52;13.48;;;8.00;99.90;;;;;;5066317;28;20040;-49
2021/10/18 04:03:48;;;;;;;19.70;14.15;;;8.10;99.90;;;;;;5052222;28;20028;-51
2021/10/18 04:06:14;;;;;;;20.02;14.40;;;8.10;99.90;;;;;;5070711;28;20036;-50
2021/10/18 04:08:40;;;;;;;20.05;14.02;;;8.10;99.90;;;;;;5070344;28;20055;-50
2021/10/18 04:11:05;;;;;;;22.02;13.93;;;8.10;99.90;;;;;;5069353;28;20078;-51
2021/10/18 04:13:31;;;;;;;21.55;14.43;;;8.10;99.90;;;;;;5070021;28;20040;-51
2021/10/18 04:15:57;;;;;;;18.58;13.80;;;8.10;99.90;;;;;;5069896;28;20036;-50
2021/10/18 04:18:22;;;;;;;22.50;13.43;;;8.10;99.90;;;;;;5070507;28;20423;-50
2021/10/18 04:20:48;;;;;;;22.08;14.88;;;8.20;99.90;;;;;;5069945;28;20047;-51
2021/10/18 04:23:14;;;;;;;19.83;13.98;;;8.20;99.90;;;;;;5070068;28;20017;-51
2021/10/18 04:25:39;;;;;;;16.95;13.05;;;8.20;99.90;;;;;;5070432;28;20079;-50
2021/10/18 04:28:05;;;;;;;20.35;14.43;;;8.20;99.90;;;;;;5070436;28;20051;-52
2021/10/18 04:30:30;;;;;;;20.33;13.63;;;8.20;99.90;;;;;;5069425;28;20037;-50
2021/10/18 04:32:56;;;;;;;20.02;14.02;;;8.20;99.90;;;;;;5070368;28;20031;-50
2021/10/18 04:35:22;;;;;;;22.23;15.40;;;8.20;99.90;;;;;;5069010;28;20035;-52
2021/10/18 04:37:48;;;;;;;17.50;13.88;;;8.30;99.90;;;;;;5070059;28;20103;-53
2021/10/18 04:40:15;;;;;;;20.73;13.82;;;8.30;99.90;;;;;;5074905;28;20114;-53
2021/10/18 04:42:40;;;;;;;19.25;13.27;;;8.30;99.90;;;;;;5069869;28;20089;-50
2021/10/18 04:45:07;;;;;;;20.77;13.20;;;8.30;99.90;;;;;;5070144;28;20460;-50
2021/10/18 04:47:32;;;;;;;19.48;13.82;;;8.30;99.90;;;;;;5069467;28;20032;-51
2021/10/18 04:49:58;;;;;;;16.08;12.40;;;8.30;99.90;;;;;;5051535;28;20586;-51
2021/10/18 04:52:24;;;;;;;22.38;14.45;;;8.30;99.90;;;;;;5069724;28;20032;-51
2021/10/18 04:54:49;;;;;;;18.88;14.13;;;8.30;99.90;;;;;;5069295;28;20032;-51
2021/10/18 04:57:15;;;;;;;18.00;13.57;;;8.30;99.90;;;;;;5069592;28;20029;-51
2021/10/18 04:59:40;;;;;;;18.95;13.40;;;8.30;99.90;;;;;;5069312;28;20471;-53
2021/10/18 05:02:06;;;;;;;20.80;14.57;;;8.40;99.90;;;;;;5068896;28;20128;-53
2021/10/18 05:04:31;;;;;;;18.58;13.68;;;8.40;99.90;;;;;;5069851;28;20190;-51
2021/10/18 05:06:57;;;;;;;18.42;13.07;;;8.40;99.90;;;;;;5069749;28;20075;-51
2021/10/18 05:09:23;;;;;;;19.30;13.40;;;8.40;99.90;;;;;;5069540;28;20044;-51
2021/10/18 05:11:49;;;;;;;20.85;13.57;;;8.50;99.90;;;;;;5069171;28;20496;-53
2021/10/18 05:14:14;;;;;;;18.65;13.43;;;8.50;99.90;;;;;;5069175;28;20071;-52
2021/10/18 05:16:40;;;;;;;19.48;13.60;;;8.60;99.90;;;;;;5068819;28;20520;-51
2021/10/18 05:19:05;;;;;;;19.70;13.25;;;8.60;99.90;;;;;;5054974;28;20036;-51
2021/10/18 05:21:31;;;;;;;18.33;12.98;;;8.60;99.90;;;;;;5069140;28;20040;-51
2021/10/18 05:23:57;;;;;;;18.00;12.80;;;8.60;99.90;;;;;;5069012;28;20060;-52
2021/10/18 05:26:23;;;;;;;19.15;13.13;;;8.60;99.90;;;;;;5050709;28;20056;-52
2021/10/18 05:28:48;;;;;;;16.30;11.90;;;8.70;99.90;;;;;;5069142;28;20063;-52
2021/10/18 05:31:14;;;;;;;17.67;13.15;;;8.70;99.90;;;;;;5069142;28;20039;-49
2021/10/18 05:33:39;;;;;;;18.50;12.98;;;8.70;99.90;;;;;;5069433;28;20036;-51
2021/10/18 05:36:05;;;;;;;17.23;12.48;;;8.70;99.90;;;;;;5068720;28;20047;-53
2021/10/18 05:38:30;;;;;;;16.83;11.93;;;8.70;99.90;;;;;;5068977;28;20040;-53
2021/10/18 05:40:56;;;;;;;16.00;11.35;;;8.70;99.90;;;;;;5070520;28;20016;-50
2021/10/18 05:43:21;;;;;;;24.35;13.35;;;8.80;99.90;;;;;;5068743;28;20032;-52
2021/10/18 05:45:47;;;;;;;18.13;12.75;;;8.70;99.90;;;;;;5068948;28;20115;-53
2021/10/18 05:48:14;;;;;;;16.08;11.95;;;8.70;99.90;;;;;;5069209;28;20040;-51
2021/10/18 05:50:43;;;;;;;17.08;11.40;;;8.80;99.90;;;;;;5068337;28;20035;-53
2021/10/18 05:53:09;;;;;;;18.48;11.77;;;8.80;99.90;;;;;;5067580;28;20182;-51
2021/10/18 05:55:35;;;;;;;16.48;12.10;;;8.80;99.90;;;;;;5068704;28;20112;-53
2021/10/18 05:58:03;;;;;;;18.25;12.57;;;8.80;99.90;;;;;;5050707;28;20028;-50
2021/10/18 06:00:40;;;;;;;13.35;11.02;;;8.80;99.90;;;;;;5067503;28;20020;-52
2021/10/18 06:03:06;;;;;;;15.88;11.18;;;8.80;99.90;;;;;;5068399;28;20570;-54
2021/10/18 06:05:33;;;;;;;15.55;12.65;;;8.70;99.90;;;;;;5068847;28;20028;-52
2021/10/18 06:08:06;;;;;;;14.48;11.30;;;8.70;99.90;;;;;;5069026;28;20090;-51
2021/10/18 06:10:32;;;;;;;16.15;12.05;;;8.80;99.90;;;;;;5068340;28;20704;-52
2021/10/18 06:12:58;;;;;;;17.42;11.93;;;8.80;99.90;;;;;;5069085;28;20116;-52
2021/10/18 06:15:23;;;;;;;17.13;12.57;;;8.80;99.90;;;;;;5068280;28;20025;-53
2021/10/18 06:17:49;;;;;;;15.45;11.85;;;8.80;99.90;;;;;;5068111;28;20695;-53
2021/10/18 06:22:42;;;;;;;15.93;10.73;;;8.90;99.90;;;;;;5065873;28;20044;-52
2021/10/18 06:25:08;;;;;;;15.27;11.32;;;8.80;99.90;;;;;;5051096;28;20423;-51
2021/10/18 06:27:34;;;;;;;15.80;11.93;;;8.90;99.90;;;;;;5068235;28;20029;-48
2021/10/18 06:29:59;;;;;;;17.10;10.65;;;8.90;99.90;;;;;;5068669;28;20540;-49
2021/10/18 06:32:25;;;;;;;19.65;12.27;;;8.90;99.90;;;;;;5083887;28;20115;-50
2021/10/18 06:34:51;;;;;;;16.35;12.13;;;8.90;99.90;;;;;;5089080;28;20097;-50
2021/10/18 06:37:16;;;;;;;20.33;12.60;;;8.90;99.90;;;;;;5074409;28;20507;-51
2021/10/18 06:39:43;;;;;;;14.35;11.68;;;9.00;99.90;;;;;;5066433;28;20103;-50
2021/10/18 06:42:08;;;;;;;19.08;13.80;;;9.00;99.90;;;;;;5049238;28;20450;-52
2021/10/18 06:44:34;;;;;;;17.98;13.55;;;9.00;99.90;;;;;;5069304;28;20103;-49
2021/10/18 06:47:01;;;;;;;18.63;12.90;;;9.10;99.90;;;;;;5070206;28;20051;-47
2021/10/18 06:49:26;;;;;;;17.50;12.55;;;9.10;99.90;;;;;;5067579;28;20028;-52
2021/10/18 06:51:54;;;;;;;14.93;12.57;;;9.10;99.90;;;;;;5067578;28;20021;-52
2021/10/18 06:54:21;;;;;;;17.98;12.90;;;9.10;99.90;;;;;;5067538;28;20078;-49
2021/10/18 06:56:47;;;;;;;15.70;12.40;;;9.20;99.90;;;;;;5066566;28;20400;-48
2021/10/18 06:59:14;;;;;;;17.10;13.63;;;9.20;99.90;;;;;;5067209;28;20028;-49
2021/10/18 07:01:40;;;;;;;20.02;13.77;;;9.30;99.90;;;;;;5068029;28;20028;-49
2021/10/18 07:04:06;;;;;;;19.35;12.70;;;9.30;99.90;;;;;;5049582;28;20025;-50
2021/10/18 07:06:33;;;;;;;20.83;13.32;;;9.30;99.90;;;;;;5050185;28;20047;-50
2021/10/18 07:08:58;;;;;;;15.85;12.27;;;9.40;99.90;;;;;;5049509;28;20028;-51
2021/10/18 07:11:25;;;;;;;15.32;12.23;;;9.40;99.90;;;;;;5067723;28;20600;-55
2021/10/18 07:13:51;;;;;;;19.35;12.48;;;9.40;99.90;;;;;;5068072;28;20078;-47
2021/10/18 07:16:16;;;;;;;20.10;13.38;;;9.40;99.90;;;;;;5068658;28;20060;-52
2021/10/18 07:18:43;;;;;;;18.08;13.02;;;9.50;99.90;;;;;;5067881;28;20020;-51
2021/10/18 07:21:09;;;;;;;19.20;13.00;;;9.50;99.90;;;;;;5067449;28;20436;-53
2021/10/18 07:23:34;;;;;;;18.05;12.30;;;9.50;99.90;;;;;;5069110;28;20154;-50
2021/10/18 07:26:03;;;;;;;16.60;12.88;;;9.60;99.90;;;;;;5087807;28;20078;-50
2021/10/18 07:28:28;;;;;;;15.32;12.52;;;9.60;99.90;;;;;;5055164;28;20024;-52
2021/10/18 07:30:55;;;;;;;16.63;12.02;;;9.60;99.90;;;;;;5067025;28;20515;-50
2021/10/18 07:33:21;;;;;;;16.88;12.50;;;9.70;99.90;;;;;;5067164;28;20104;-52
2021/10/18 07:35:46;;;;;;;15.77;12.10;;;9.70;99.90;;;;;;5067888;28;20095;-50
2021/10/18 07:38:12;;;;;;;17.40;11.77;;;9.70;99.90;;;;;;5070134;28;20024;-52
2021/10/18 07:40:37;;;;;;;17.40;12.57;;;9.70;99.90;;;;;;5090257;28;20512;-50
2021/10/18 07:43:03;;;;;;;17.83;13.15;;;9.80;99.90;;;;;;5091459;28;20035;-51
2021/10/18 07:45:29;;;;;;;16.75;13.70;;;9.90;99.90;;;;;;5072718;28;20028;-54
2021/10/18 07:47:55;;;;;;;21.55;12.88;;;9.90;99.90;;;;;;5071705;28;20492;-51
2021/10/18 07:50:20;;;;;;;15.40;11.90;;;10.00;99.90;;;;;;5071436;28;20055;-50
2021/10/18 07:52:46;;;;;;;14.93;12.10;;;10.00;99.90;;;;;;5071868;28;20063;-52
2021/10/18 07:55:17;;;;;;;16.65;12.73;;;10.10;99.90;;;;;;5086451;28;20035;-51
2021/10/18 07:57:45;;;;;;;14.02;11.75;;;10.20;99.90;;;;;;5091838;28;20060;-52
2021/10/18 08:00:12;;;;;;;16.70;11.68;;;10.20;99.90;;;;;;5073389;28;20037;-49
2021/10/18 08:02:38;;;;;;;19.08;12.95;;;10.20;99.90;;;;;;5071121;28;20507;-51
2021/10/18 08:05:04;;;;;;;16.88;12.15;;;10.30;99.90;;;;;;5070323;28;20209;-53
2021/10/18 08:07:35;;;;;;;17.92;13.52;;;10.30;99.90;;;;;;5070497;28;20098;-48
2021/10/18 08:10:04;;;;;;;15.70;11.82;;;10.30;99.90;;;;;;5086021;28;20111;-51
2021/10/18 08:12:29;;;;;;;17.13;12.63;;;10.40;99.90;;;;;;5090985;28;20111;-51
2021/10/18 08:14:55;;;;;;;15.77;12.27;;;10.40;99.90;;;;;;5071313;28;20114;-51
2021/10/18 08:17:20;;;;;;;16.40;12.45;;;10.50;99.90;;;;;;5087973;28;20428;-52
2021/10/18 08:19:46;;;;;;;18.23;12.32;;;10.50;99.90;;;;;;5090815;28;20556;-52
2021/10/18 08:22:11;;;;;;;19.30;11.95;;;10.60;99.90;;;;;;5090096;28;20444;-49
2021/10/18 08:24:37;;;;;;;16.23;12.13;;;10.60;99.90;;;;;;5091032;28;20277;-49
2021/10/18 08:27:03;;;;;;;15.30;10.75;;;10.70;99.90;;;;;;5058736;28;20029;-50
2021/10/18 08:29:28;;;;;;;17.27;12.20;;;10.80;99.90;;;;;;5070224;28;20028;-51
2021/10/18 08:31:54;;;;;;;12.57;10.65;;;10.80;99.90;;;;;;5070089;28;20495;-54
2021/10/18 08:34:19;;;;;;;13.43;11.05;;;10.90;99.90;;;;;;5071004;28;20495;-47
2021/10/18 08:36:45;;;;;;;14.55;11.27;;;10.90;99.90;;;;;;5071193;28;20040;-52
2021/10/18 08:41:49;;;;;;;16.23;11.55;;;11.00;99.90;;;;;;5086334;28;20054;-51
2021/10/18 08:44:15;;;;;;;17.40;11.88;;;11.00;99.90;;;;;;5055654;28;20120;-51
2021/10/18 08:46:58;;;;;;;18.08;12.10;;;11.00;99.90;;;;;;5076120;28;20450;-50
2021/10/18 08:49:24;;;;;;;15.63;10.80;;;11.10;99.90;;;;;;5069407;28;20024;-50
2021/10/18 08:51:49;;;;;;;19.30;12.95;;;11.10;99.90;;;;;;5075476;28;20041;-53
2021/10/18 08:54:16;;;;;;;15.23;10.90;;;11.20;99.90;;;;;;5076809;28;20028;-52
2021/10/18 08:56:42;;;;;;;15.82;11.40;;;11.20;99.90;;;;;;5068830;28;20025;-52
2021/10/18 08:59:08;;;;;;;16.77;10.90;;;11.30;99.90;;;;;;5068674;28;20035;-50
2021/10/18 09:02:02;;;;;;;13.75;10.73;;;11.30;99.90;;;;;;5072833;28;20024;-51
2021/10/18 09:04:30;;;;;;;14.82;10.68;;;11.40;99.90;;;;;;5041531;28;20128;-49
2021/10/18 09:06:59;;;;;;;13.05;10.73;;;11.50;99.90;;;;;;5070063;28;20119;-52
2021/10/18 09:09:27;;;;;;;11.93;9.80;;;11.50;99.90;;;;;;5068442;28;20036;-50
2021/10/18 09:11:55;;;;;;;15.70;10.25;;;11.50;99.90;;;;;;5068310;28;20516;-53
2021/10/18 09:14:21;;;;;;;12.52;10.23;;;11.60;99.90;;;;;;5069086;28;20037;-52
2021/10/18 09:16:47;;;;;;;14.80;10.30;;;11.60;99.90;;;;;;5070087;28;20035;-50
2021/10/18 09:19:24;;;;;;;19.00;10.48;;;11.60;99.90;;;;;;5068915;28;20048;-47
2021/10/18 09:21:57;;;;;;;17.67;10.32;;;11.70;99.90;;;;;;5070067;28;20023;-53
2021/10/18 09:24:29;;;;;;;11.93;8.98;;;11.70;99.90;;;;;;5069664;28;20029;-51
2021/10/18 09:26:58;;;;;;;11.93;9.95;;;11.70;99.90;;;;;;5069109;28;20140;-50
2021/10/18 09:29:44;;;;;;;16.17;10.35;;;11.70;99.90;;;;;;5067711;28;20093;-50
2021/10/18 09:32:09;;;;;;;14.20;9.75;;;11.70;99.90;;;;;;5031398;28;20043;-49
2021/10/18 09:34:35;;;;;;;11.18;9.38;;;11.70;99.90;;;;;;5069308;28;20107;-47
2021/10/18 09:37:09;;;;;;;13.05;9.32;;;11.70;99.90;;;;;;5089868;28;20032;-48
2021/10/18 09:39:42;;;;;;;12.25;9.57;;;11.70;99.90;;;;;;5086809;28;20024;-51
2021/10/18 09:42:10;;;;;;;11.88;9.35;;;11.70;99.90;;;;;;5088351;28;20105;-55
2021/10/18 10:54:02;;;;;;;11.32;7.55;;;13.00;99.90;;;;;;5068152;28;20593;-53
2021/10/18 10:56:38;;;;;;;9.63;7.75;;;13.00;99.90;;;;;;5057161;28;20071;-50
2021/10/18 10:59:24;;;;;;;11.18;7.35;;;13.10;99.90;;;;;;5053748;28;20025;-50
2021/10/18 11:01:55;;;;;;;12.85;7.40;;;13.20;99.90;;;;;;5067811;28;20025;-50
2021/10/18 11:04:34;;;;;;;8.20;7.35;;;13.20;99.90;;;;;;5067804;28;20083;-51
2021/10/18 11:07:24;;;;;;;9.95;7.30;;;13.20;99.90;;;;;;5068344;28;20099;-55
2021/10/18 11:09:55;;;;;;;8.82;7.93;;;13.30;99.90;;;;;;5025768;28;20037;-47
2021/10/18 11:12:39;;;;;;;8.70;7.20;;;13.30;99.90;;;;;;5067721;28;20082;-52
2021/10/18 11:15:11;;;;;;;9.35;7.35;;;13.30;99.90;;;;;;5068134;28;20028;-50
2021/10/18 11:17:45;;;;;;;8.68;6.63;;;13.40;99.90;;;;;;5067618;28;20464;-49
2021/10/18 11:20:18;;;;;;;10.00;7.70;;;13.50;99.90;;;;;;5067733;28;20023;-52
2021/10/18 11:22:46;;;;;;;9.40;6.78;;;13.50;99.90;;;;;;5067637;28;20474;-53
2021/10/18 11:25:16;;;;;;;8.35;6.93;;;13.50;99.90;;;;;;5067182;28;20029;-52
2021/10/18 11:27:45;;;;;;;11.73;7.72;;;13.50;99.90;;;;;;5079285;28;20622;-51
2021/10/18 11:30:18;;;;;;;15.55;9.52;;;13.50;99.90;;;;;;5087253;28;20518;-47
2021/10/18 11:32:57;;;;;;;9.45;8.10;;;13.50;99.90;;;;;;5075472;28;20036;-48
2021/10/18 11:35:24;;;;;;;11.55;8.80;;;13.50;99.90;;;;;;5067385;28;20540;-52
2021/10/18 11:37:49;;;;;;;10.55;8.30;;;13.50;99.90;;;;;;5067977;28;20028;-56
2021/10/18 11:40:17;;;;;;;12.82;9.75;;;13.50;99.90;;;;;;5066938;28;20034;-51
2021/10/18 11:42:54;;;;;;;15.48;10.05;;;13.50;99.90;;;;;;5019045;28;20102;-53
2021/10/18 11:45:22;;;;;;;12.02;7.85;;;13.50;99.90;;;;;;5067529;28;20025;-52
2021/10/18 11:47:48;;;;;;;14.32;11.70;;;13.50;99.90;;;;;;5067371;28;20032;-50
2021/10/18 11:50:24;;;;;;;10.40;8.23;;;13.50;99.90;;;;;;5066713;28;20329;-52
2021/10/18 11:52:54;;;;;;;10.60;8.75;;;13.50;99.90;;;;;;5066978;28;20036;-54
2021/10/18 11:55:29;;;;;;;14.38;10.68;;;13.60;99.90;;;;;;5067447;28;20063;-52
2021/10/18 11:57:56;;;;;;;10.98;7.78;;;13.60;99.90;;;;;;5066857;28;20508;-51
2021/10/18 12:00:23;;;;;;;9.93;7.07;;;13.60;99.90;;;;;;5066445;28;20095;-50
2021/10/18 12:02:49;;;;;;;12.75;9.63;;;13.60;99.90;;;;;;5067278;28;20086;-51
2021/10/18 12:05:16;;;;;;;11.60;8.60;;;13.60;99.90;;;;;;5066950;28;20056;-52
2021/10/18 12:07:51;;;;;;;13.18;9.52;;;13.70;99.90;;;;;;5066842;28;20040;-51
2021/10/18 12:10:27;;;;;;;13.98;8.75;;;13.70;99.90;;;;;;5066820;28;20238;-50
2021/10/18 12:13:13;;;;;;;11.30;8.70;;;13.70;99.90;;;;;;5066298;28;20025;-53
2021/10/18 12:15:39;;;;;;;8.27;7.10;;;13.70;99.90;;;;;;5066581;28;20055;-55
2021/10/18 12:18:06;;;;;;;9.05;7.00;;;13.70;99.90;;;;;;5066635;28;20500;-51
2021/10/18 12:20:32;;;;;;;9.45;8.45;;;13.70;99.90;;;;;;5066665;28;20036;-52
2021/10/18 12:23:05;;;;;;;10.07;8.05;;;13.70;99.90;;;;;;5072062;22;20056;-54
2021/10/18 12:25:35;;;;;;;8.15;7.30;;;13.70;99.90;;;;;;5030713;28;20040;-51
2021/10/18 12:28:35;;;;;;;9.55;7.07;;;13.70;99.90;;;;;;5050654;28;20021;-51
2021/10/18 12:31:01;;;;;;;10.10;7.22;;;13.60;99.90;;;;;;5051221;28;20094;-51
2021/10/18 12:33:36;;;;;;;11.32;8.55;;;13.60;99.90;;;;;;5070904;28;20024;-52
2021/10/18 12:36:02;;;;;;;10.77;8.45;;;13.60;99.90;;;;;;5069771;28;20500;-53
2021/10/18 12:38:30;;;;;;;9.25;7.20;;;13.60;99.90;;;;;;5070199;28;20028;-53
2021/10/18 12:41:13;;;;;;;7.32;6.57;;;13.60;99.90;;;;;;5070475;28;20047;-53
2021/10/18 12:43:39;;;;;;;9.32;6.95;;;13.60;99.90;;;;;;5070425;28;20028;-54
2021/10/18 12:46:37;;;;;;;11.60;9.20;;;13.70;99.90;;;;;;5070624;28;20033;-53
2021/10/18 12:49:05;;;;;;;18.83;9.63;;;13.60;99.90;;;;;;5034881;28;20053;-53
2021/10/18 12:51:37;;;;;;;11.25;8.88;;;13.70;99.90;;;;;;5070403;28;20027;-52
2021/10/18 12:54:26;;;;;;;12.60;9.15;;;13.70;99.90;;;;;;5052554;28;20033;-55
2021/10/18 12:57:08;;;;;;;9.30;8.23;;;13.80;99.90;;;;;;5070055;28;20028;-53
2021/10/18 12:59:36;;;;;;;8.48;7.10;;;13.80;99.90;;;;;;5083122;28;20020;-55
2021/10/18 13:02:15;;;;;;;9.32;6.97;;;13.80;99.90;;;;;;5084964;28;20385;-52
2021/10/18 13:04:40;;;;;;;9.55;7.13;;;13.80;99.90;;;;;;5078548;28;20027;-53
2021/10/18 13:07:06;;;;;;;16.77;13.02;;;13.80;99.90;;;;;;5081648;28;20032;-54
2021/10/18 13:09:31;;;;;;;10.85;7.93;;;13.90;99.90;;;;;;5069978;28;20033;-53
2021/10/18 13:11:57;;;;;;;12.35;7.90;;;13.90;99.90;;;;;;5052035;28;20040;-54
2021/10/18 13:14:23;;;;;;;12.60;8.02;;;13.90;99.90;;;;;;5069777;28;20488;-55
2021/10/18 13:16:48;;;;;;;9.25;8.25;;;13.90;99.90;;;;;;5070105;28;20400;-56
2021/10/18 13:19:14;;;;;;;9.00;7.32;;;13.90;99.90;;;;;;5069934;28;20107;-54
2021/10/18 13:21:39;;;;;;;8.75;7.78;;;13.90;99.90;;;;;;5069443;28;20551;-55
2021/10/18 13:24:05;;;;;;;9.65;7.00;;;14.00;99.90;;;;;;5090584;28;20129;-52
2021/10/18 13:26:31;;;;;;;10.05;7.15;;;14.00;99.90;;;;;;5085977;28;20099;-52
2021/10/18 13:28:56;;;;;;;9.23;7.57;;;14.00;99.90;;;;;;5089925;28;20035;-52
2021/10/18 13:31:22;;;;;;;9.30;7.57;;;14.00;99.90;;;;;;5074249;28;20024;-52
2021/10/18 13:33:47;;;;;;;8.23;6.65;;;14.00;99.90;;;;;;5069808;28;20159;-53
2021/10/18 13:36:13;;;;;;;7.45;6.45;;;14.00;99.90;;;;;;5069673;28;20651;-54
2021/10/18 13:38:39;;;;;;;11.57;7.43;;;14.00;99.90;;;;;;5069516;28;20020;-52
2021/10/18 13:41:04;;;;;;;11.25;7.70;;;14.00;99.90;;;;;;5083889;28;20637;-53
2021/10/18 13:43:30;;;;;;;11.05;7.57;;;14.10;99.90;;;;;;5075055;28;20041;-54
2021/10/18 13:45:57;;;;;;;10.40;7.90;;;14.10;99.90;;;;;;5069821;28;20028;-53
2021/10/18 13:48:24;;;;;;;9.55;7.63;;;14.10;99.90;;;;;;5068780;28;20029;-52
2021/10/18 13:50:50;;;;;;;7.47;6.75;;;14.10;99.90;;;;;;5069326;28;20569;-52